Maersk Seletar — WTAA — position and weather

sailwx.info

Track history (hours):
 
Tides and Currents Weather Stations Pressure Air Temp Water Temp Dewpoint Dewpoint Depression Visibility Wind Speed Wind Dir Waves Ship Positions

Maersk Seletar

Owner: MAERSK LINE, LIMITED, Norfolk, VA. More information available from US FCC via Universal Licensing System and Coast Guard Vessel Documentation Center.

Last reported at 2018-Feb-25 01:29 UTC. Time now 2018-Feb-25 01:55 UTC.
Position N 51°17' E 004°15'.

Length 319 m; draft 11.8 m.

Type: Cargo ship. MMSI: 369309000.

Date/timePositionNaut miles runAvg speedWind from/ knotsBaromVisibWave heightAir tempDewpointWater temp
2018-Feb-25 01:29N 51°17' E 004°15'0 0.0
2018-Feb-25 00:59N 51°17' E 004°15'0 0.0
2018-Feb-25 00:26N 51°17' E 004°15'0 0.0
2018-Feb-24 23:59N 51°17' E 004°15'0 0.0
2018-Feb-24 23:29N 51°17' E 004°15'0 0.0
2018-Feb-24 22:59N 51°17' E 004°15'0 0.0
2018-Feb-24 22:29N 51°17' E 004°15'0 0.0
2018-Feb-24 21:56N 51°17' E 004°15'0 0.0
2018-Feb-24 21:26N 51°17' E 004°15'0 0.0
2018-Feb-24 20:59N 51°17' E 004°15'0 0.0
2018-Feb-24 20:26N 51°17' E 004°15'0 0.0
2018-Feb-24 19:56N 51°17' E 004°15'0 0.0
2018-Feb-24 19:29N 51°17' E 004°15'0 0.0
2018-Feb-24 18:56N 51°17' E 004°15'0 0.0
2018-Feb-24 18:26N 51°17' E 004°15'0 0.0
2018-Feb-24 17:59N 51°17' E 004°15'0 0.0
2018-Feb-24 17:29N 51°17' E 004°15'0 0.0
2018-Feb-24 16:59N 51°17' E 004°15'0 0.0
2018-Feb-24 16:29N 51°17' E 004°15'0 0.0
2018-Feb-24 15:56N 51°17' E 004°15'0 0.0
2018-Feb-24 15:29N 51°17' E 004°15'0 0.0
2018-Feb-24 14:59N 51°17' E 004°15'0 0.0
2018-Feb-24 14:29N 51°17' E 004°15'0 0.0
2018-Feb-24 13:56N 51°17' E 004°15'0 0.0
2018-Feb-24 13:23N 51°17' E 004°15'0 0.0
2018-Feb-24 12:59N 51°17' E 004°15'0 0.0
2018-Feb-24 12:29N 51°17' E 004°15'0 0.0
2018-Feb-24 11:59N 51°17' E 004°15'0 0.0
2018-Feb-24 11:29N 51°17' E 004°15'0 0.0
2018-Feb-24 10:59N 51°17' E 004°15'0 0.0
2018-Feb-24 10:26N 51°17' E 004°15'0 0.0
2018-Feb-24 09:59N 51°17' E 004°15'0 0.0
2018-Feb-24 09:29N 51°17' E 004°15'0 0.0
2018-Feb-24 08:59N 51°17' E 004°15'0 0.0
2018-Feb-24 08:29N 51°17' E 004°15'0 0.0
2018-Feb-24 07:59N 51°17' E 004°15'0 0.0
2018-Feb-24 07:29N 51°17' E 004°15'0 0.0
2018-Feb-24 06:59N 51°17' E 004°15'0 0.0
2018-Feb-24 06:29N 51°17' E 004°15'0 0.0
2018-Feb-24 05:56N 51°17' E 004°15'0 0.0
2018-Feb-24 05:29N 51°17' E 004°15'0 0.0
2018-Feb-24 04:56N 51°17' E 004°15'0 0.0
2018-Feb-24 04:29N 51°17' E 004°15'0 0.2
2018-Feb-24 04:00N 51°17' E 004°15'1 2.3
2018-Feb-24 03:30N 51°18' E 004°16'2 3.1
2018-Feb-24 03:00N 51°20' E 004°16'4 7.7
2018-Feb-24 02:31N 51°23' E 004°13'611.5
2018-Feb-24 02:00N 51°22' E 004°04'4 8.7
2018-Feb-24 01:30N 51°25' E 003°58'713.2
2018-Feb-24 01:00N 51°21' E 003°49'713.3
2018-Feb-24 00:30N 51°26' E 003°42'5 9.3
2018-Feb-24 00:00N 51°25' E 003°34'510.1
2018-Feb-23 23:30N 51°25' E 003°26'816.6
2018-Feb-23 23:01N 51°24' E 003°13'917.2
2018-Feb-23 22:31N 51°25' E 002°59'916.8
2018-Feb-23 22:00N 51°24' E 002°45'3 6.5
2018-Feb-23 21:30N 51°24' E 002°40'3 5.6
2018-Feb-23 21:00N 51°23' E 002°36'4 8.0
2018-Feb-23 20:30N 51°22' E 002°30'919.4
2018-Feb-23 20:00N 51°18' E 002°16'917.4
2018-Feb-23 19:31N 51°22' E 002°03'918.7
2018-Feb-23 19:00N 51°29' E 001°53'918.7
2018-Feb-23 18:30N 51°38' E 001°47'918.9
2018-Feb-23 18:00N 51°47' E 001°44'714.6
2018-Feb-23 17:30N 51°54' E 001°42'0 0.5
2018-Feb-23 16:58N 51°54' E 001°42'0 0.0
2018-Feb-23 16:28N 51°54' E 001°42'0 0.0
2018-Feb-23 15:58N 51°54' E 001°42'0 0.1
2018-Feb-23 15:28N 51°54' E 001°42'0 0.0
2018-Feb-23 14:58N 51°54' E 001°42'0 0.0
2018-Feb-23 14:28N 51°54' E 001°42'0 0.0
2018-Feb-23 13:58N 51°54' E 001°42'0 0.0
2018-Feb-23 13:28N 51°54' E 001°42'0 0.1
2018-Feb-23 12:58N 51°54' E 001°42'1 2.1
2018-Feb-23 12:30N 51°53' E 001°41'4 8.8
2018-Feb-23 12:00N 51°52' E 001°34'611.6
2018-Feb-23 11:30N 51°56' E 001°27'510.4
2018-Feb-23 11:00N 51°57' E 001°18'1 1.9
2018-Feb-23 10:28N 51°58' E 001°17'0 0.0
2018-Feb-23 09:58N 51°58' E 001°17'0 0.0
2018-Feb-23 09:28N 51°58' E 001°17'0 0.0
2018-Feb-23 08:58N 51°58' E 001°17'0 0.0
2018-Feb-23 08:28N 51°58' E 001°17'0 0.0
2018-Feb-23 07:58N 51°58' E 001°17'0 0.0
2018-Feb-23 07:28N 51°58' E 001°17'0 0.0
2018-Feb-23 06:58N 51°58' E 001°17'0 0.0
2018-Feb-23 06:28N 51°58' E 001°17'0 0.0
2018-Feb-23 05:58N 51°58' E 001°17'0 0.0
2018-Feb-23 05:28N 51°58' E 001°17'0 0.0
2018-Feb-23 04:58N 51°58' E 001°17'0 0.0
2018-Feb-23 04:28N 51°58' E 001°17'0 0.0
2018-Feb-23 03:58N 51°58' E 001°17'0 0.0
2018-Feb-23 03:28N 51°58' E 001°17'0 0.0
2018-Feb-23 02:58N 51°58' E 001°17'0 0.0
2018-Feb-23 02:28N 51°58' E 001°17'0 0.0
2018-Feb-23 01:58N 51°58' E 001°17'0 0.0
2018-Feb-23 01:28N 51°58' E 001°17'0 0.0
2018-Feb-23 00:52N 51°58' E 001°17'0 0.0
2018-Feb-23 00:28N 51°58' E 001°17'0 0.0
2018-Feb-22 23:58N 51°58' E 001°17'0 0.0
2018-Feb-22 23:25N 51°58' E 001°17'0 0.0
2018-Feb-22 22:58N 51°58' E 001°17'0 0.0
2018-Feb-22 22:28N 51°58' E 001°17'0 0.0
2018-Feb-22 21:58N 51°58' E 001°17'0 0.0
2018-Feb-22 21:28N 51°58' E 001°17'0 0.0
2018-Feb-22 20:58N 51°58' E 001°17'0 0.0
2018-Feb-22 20:28N 51°58' E 001°17'0 0.0
2018-Feb-22 19:58N 51°58' E 001°17'0 0.0
2018-Feb-22 19:28N 51°58' E 001°17'0 0.0
2018-Feb-22 18:58N 51°58' E 001°17'0 0.0
2018-Feb-22 18:28N 51°58' E 001°17'0 0.0
2018-Feb-22 17:58N 51°58' E 001°17'0 0.0
2018-Feb-22 17:25N 51°58' E 001°17'0 0.0
2018-Feb-22 16:58N 51°58' E 001°17'0 0.0
2018-Feb-22 16:28N 51°58' E 001°17'0 0.0
2018-Feb-22 15:58N 51°58' E 001°17'0 0.0
2018-Feb-22 15:28N 51°58' E 001°17'0 0.0
2018-Feb-22 14:58N 51°58' E 001°17'0 0.0
2018-Feb-22 14:28N 51°58' E 001°17'0 0.0
2018-Feb-22 13:58N 51°58' E 001°17'0 0.0
2018-Feb-22 13:28N 51°58' E 001°17'0 0.0
2018-Feb-22 12:58N 51°58' E 001°17'0 0.0
2018-Feb-22 12:28N 51°58' E 001°17'0 0.0
2018-Feb-22 11:58N 51°58' E 001°17'0 0.0
2018-Feb-22 11:28N 51°58' E 001°17'0 0.0
2018-Feb-22 10:58N 51°58' E 001°17'0 0.0
2018-Feb-22 10:28N 51°58' E 001°17'0 0.0
2018-Feb-22 09:58N 51°58' E 001°17'0 0.0
2018-Feb-22 09:28N 51°58' E 001°17'0 0.0
2018-Feb-22 08:58N 51°58' E 001°17'0 0.0
2018-Feb-22 08:28N 51°58' E 001°17'0 0.0
2018-Feb-22 07:58N 51°58' E 001°17'0 0.0
2018-Feb-22 07:28N 51°58' E 001°17'0 0.0
2018-Feb-22 06:58N 51°58' E 001°17'0 0.0
2018-Feb-22 06:28N 51°58' E 001°17'0 0.0
2018-Feb-22 05:58N 51°58' E 001°17'0 0.0
2018-Feb-22 05:28N 51°58' E 001°17'0 0.0
2018-Feb-22 04:58N 51°58' E 001°17'0 0.0
2018-Feb-22 04:28N 51°58' E 001°17'0 0.0
2018-Feb-22 03:58N 51°58' E 001°17'0 0.0
2018-Feb-22 03:28N 51°58' E 001°17'0 0.0
2018-Feb-22 02:58N 51°58' E 001°17'0 0.0
2018-Feb-22 02:28N 51°58' E 001°17'0 0.0
2018-Feb-22 01:58N 51°58' E 001°17'0 0.0
2018-Feb-22 01:30N 51°58' E 001°17'1 1.5
2018-Feb-22 01:00N 51°57' E 001°18'3 6.0
2018-Feb-22 00:30N 51°56' E 001°23'714.2
2018-Feb-22 00:00N 51°54' E 001°34'5 9.1
2018-Feb-21 23:30N 51°52' E 001°40'5 9.7
2018-Feb-21 23:01N 51°56' E 001°44'3 6.4
2018-Feb-21 22:30N 51°59' E 001°45'1 1.6
2018-Feb-21 22:00N 51°59' E 001°46'1 1.4
2018-Feb-21 21:30N 52°00' E 001°47'2 3.5
2018-Feb-21 21:00N 52°01' E 001°50'511.0
2018-Feb-21 20:31N 52°05' E 001°55'510.7
2018-Feb-21 20:00N 52°09' E 002°01'12711.5
2018-Feb-21 09:00N 53°30' E 004°42'11413.4 090 / 81027.1 9.0 9.0
2018-Feb-21 00:28N 53°52' E 007°50'613.4
2018-Feb-21 00:00N 53°51' E 008°01'714.7
2018-Feb-20 23:30N 53°46' E 008°10'713.4
2018-Feb-20 23:00N 53°42' E 008°19'4 7.3
2018-Feb-20 22:30N 53°40' E 008°23'4 8.5
2018-Feb-20 22:00N 53°37' E 008°29'3 6.1
2018-Feb-20 21:30N 53°35' E 008°32'0 0.3
2018-Feb-20 20:58N 53°35' E 008°32'0 0.0
2018-Feb-20 20:28N 53°35' E 008°32'0 0.0
2018-Feb-20 19:58N 53°35' E 008°32'0 0.0
2018-Feb-20 19:28N 53°35' E 008°32'0 0.0
2018-Feb-20 18:58N 53°35' E 008°32'0 0.0
2018-Feb-20 18:28N 53°35' E 008°32'0 0.0
2018-Feb-20 17:58N 53°35' E 008°32'0 0.0
2018-Feb-20 17:28N 53°35' E 008°32'0 0.0
2018-Feb-20 16:58N 53°35' E 008°32'0 0.0
2018-Feb-20 16:28N 53°35' E 008°32'0 0.0
2018-Feb-20 15:58N 53°35' E 008°32'0 0.0
2018-Feb-20 15:28N 53°35' E 008°32'0 0.0
2018-Feb-20 14:58N 53°35' E 008°32'0 0.0
2018-Feb-20 14:28N 53°35' E 008°32'0 0.0
2018-Feb-20 13:58N 53°35' E 008°32'0 0.0
2018-Feb-20 13:28N 53°35' E 008°32'0 0.0
2018-Feb-20 12:58N 53°35' E 008°32'0 0.0
2018-Feb-20 12:28N 53°35' E 008°32'0 0.0
2018-Feb-20 11:58N 53°35' E 008°32'0 0.0
2018-Feb-20 11:28N 53°35' E 008°32'0 0.0
2018-Feb-20 10:58N 53°35' E 008°32'0 0.0
2018-Feb-20 10:28N 53°35' E 008°32'0 0.0
2018-Feb-20 09:58N 53°35' E 008°32'0 0.0
2018-Feb-20 09:28N 53°35' E 008°32'0 0.1
2018-Feb-20 08:58N 53°35' E 008°32'0 0.0
2018-Feb-20 08:28N 53°35' E 008°32'0 0.0
2018-Feb-20 07:58N 53°35' E 008°32'0 0.0
2018-Feb-20 07:28N 53°35' E 008°32'0 0.0
2018-Feb-20 06:58N 53°35' E 008°32'0 0.0
2018-Feb-20 06:28N 53°35' E 008°32'0 0.0
2018-Feb-20 05:58N 53°35' E 008°32'0 0.0
2018-Feb-20 05:28N 53°35' E 008°32'0 0.0
2018-Feb-20 04:58N 53°35' E 008°32'0 0.0
2018-Feb-20 04:28N 53°35' E 008°32'0 0.0
2018-Feb-20 03:58N 53°35' E 008°32'0 0.0
2018-Feb-20 03:28N 53°35' E 008°32'0 0.0
2018-Feb-20 02:58N 53°35' E 008°32'0 0.0
2018-Feb-20 02:28N 53°35' E 008°32'0 0.0
2018-Feb-20 01:58N 53°35' E 008°32'0 0.0
2018-Feb-20 01:25N 53°35' E 008°32'0 0.0
2018-Feb-20 00:58N 53°35' E 008°32'0 0.0
2018-Feb-20 00:28N 53°35' E 008°32'0 0.0
2018-Feb-19 23:58N 53°35' E 008°32'0 0.0
2018-Feb-19 23:28N 53°35' E 008°32'0 0.0
2018-Feb-19 22:58N 53°35' E 008°32'0 0.0
2018-Feb-19 22:28N 53°35' E 008°32'0 0.0
2018-Feb-19 21:58N 53°35' E 008°32'0 0.0
2018-Feb-19 21:25N 53°35' E 008°32'0 0.0
2018-Feb-19 20:58N 53°35' E 008°32'0 0.0
2018-Feb-19 20:28N 53°35' E 008°32'0 0.0
2018-Feb-19 19:58N 53°35' E 008°32'0 0.0
2018-Feb-19 19:28N 53°35' E 008°32'0 0.0
2018-Feb-19 18:58N 53°35' E 008°32'0 0.0
2018-Feb-19 18:28N 53°35' E 008°32'0 0.0
2018-Feb-19 17:58N 53°35' E 008°32'0 0.0
2018-Feb-19 17:28N 53°35' E 008°32'0 0.0
2018-Feb-19 16:58N 53°35' E 008°32'0 0.0
2018-Feb-19 16:28N 53°35' E 008°32'0 0.0
2018-Feb-19 15:58N 53°35' E 008°32'0 0.0
2018-Feb-19 15:28N 53°35' E 008°32'0 0.0
2018-Feb-19 14:58N 53°35' E 008°32'0 0.0
2018-Feb-19 14:28N 53°35' E 008°32'0 0.0
2018-Feb-19 13:58N 53°35' E 008°32'0 0.0
2018-Feb-19 13:28N 53°35' E 008°32'0 0.0
2018-Feb-19 12:58N 53°35' E 008°32'0 0.0
2018-Feb-19 12:28N 53°35' E 008°32'0 0.0
2018-Feb-19 11:58N 53°35' E 008°32'0 0.0
2018-Feb-19 11:28N 53°35' E 008°32'0 0.0
2018-Feb-19 10:58N 53°35' E 008°32'0 0.0
2018-Feb-19 10:28N 53°35' E 008°32'0 0.0
2018-Feb-19 09:58N 53°35' E 008°32'0 0.0
2018-Feb-19 09:28N 53°35' E 008°32'0 0.0
2018-Feb-19 08:58N 53°35' E 008°32'0 0.0
2018-Feb-19 08:25N 53°35' E 008°32'0 0.0
2018-Feb-19 07:58N 53°35' E 008°32'0 0.0
2018-Feb-19 07:28N 53°35' E 008°32'0 0.0
2018-Feb-19 06:58N 53°35' E 008°32'0 0.0
2018-Feb-19 06:28N 53°35' E 008°32'0 0.0
2018-Feb-19 05:58N 53°35' E 008°32'0 0.0
2018-Feb-19 05:28N 53°35' E 008°32'0 0.0
2018-Feb-19 04:58N 53°35' E 008°32'0 0.0
2018-Feb-19 04:28N 53°35' E 008°32'0 0.2
2018-Feb-19 04:00N 53°35' E 008°32'2 4.9
2018-Feb-19 03:31N 53°37' E 008°30'5 9.8
2018-Feb-19 03:00N 53°40' E 008°23'612.7
2018-Feb-19 02:30N 53°44' E 008°15'712.9
2018-Feb-19 02:00N 53°49' E 008°07'713.3
2018-Feb-19 01:30N 53°51' E 007°57'9813.7
2018-Feb-18 18:23N 53°33' E 005°15'615.1
2018-Feb-18 18:01N 53°31' E 005°06'714.9
2018-Feb-18 17:30N 53°28' E 004°55'714.6
2018-Feb-18 17:01N 53°25' E 004°44'2614.0
2018-Feb-18 15:11N 53°02' E 004°23'313.6
2018-Feb-18 15:00N 52°60' E 004°21'713.6
2018-Feb-18 14:30N 52°54' E 004°16'713.3
2018-Feb-18 13:59N 52°48' E 004°10'613.2
2018-Feb-18 13:30N 52°43' E 004°03'913.1
2018-Feb-18 12:49N 52°36' E 003°54'713.0
2018-Feb-18 12:17N 52°31' E 003°46'412.8
2018-Feb-18 11:59N 52°29' E 003°41'612.6
2018-Feb-18 11:30N 52°24' E 003°34'612.5
2018-Feb-18 11:00N 52°20' E 003°27'712.3
2018-Feb-18 10:26N 52°15' E 003°19'512.2
2018-Feb-18 10:00N 52°11' E 003°14'612.2
2018-Feb-18 09:29N 52°06' E 003°07'712.3
2018-Feb-18 08:54N 52°01' E 002°58'2713.2
2018-Feb-18 06:53N 51°41' E 002°29'514.0
2018-Feb-18 06:30N 51°37' E 002°24'714.4
2018-Feb-18 06:00N 51°32' E 002°17'714.0
2018-Feb-18 05:31N 51°26' E 002°12'714.4
2018-Feb-18 05:01N 51°19' E 002°07'714.3
2018-Feb-18 04:30N 51°13' E 002°02'815.1
2018-Feb-18 04:01N 51°08' E 001°52'815.3
2018-Feb-18 03:30N 51°04' E 001°42'815.9
2018-Feb-18 03:00N 50°58' E 001°32'816.2
2018-Feb-18 02:30N 50°51' E 001°26'816.0
2018-Feb-18 02:00N 50°44' E 001°21'814.9
2018-Feb-18 01:28N 50°38' E 001°13'714.8
2018-Feb-18 00:59N 50°33' E 001°05'914.1
2018-Feb-18 00:23N 50°29' E 000°53'614.4
2018-Feb-18 00:00N 50°28' E 000°45'714.8
2018-Feb-17 23:30N 50°25' E 000°34'815.2
2018-Feb-17 23:00N 50°23' E 000°22'815.8
2018-Feb-17 22:30N 50°21' E 000°11'1016.0
2018-Feb-17 21:53N 50°17' W 000°04'816.2
2018-Feb-17 21:22N 50°13' W 000°16'2116.0
2018-Feb-17 20:05N 50°03' W 000°44'115.6
2018-Feb-17 20:00N 50°03' W 000°45'815.4
2018-Feb-17 19:30N 49°59' W 000°56'815.0
2018-Feb-17 19:00N 49°56' W 001°06'714.7
2018-Feb-17 18:30N 49°52' W 001°16'713.9
2018-Feb-17 18:00N 49°49' W 001°26'713.1
2018-Feb-17 17:30N 49°46' W 001°35'510.5
2018-Feb-17 17:00N 49°44' W 001°42'611.3
2018-Feb-17 16:30N 49°47' W 001°49'612.8
2018-Feb-17 16:00N 49°50' W 001°58'612.5
2018-Feb-17 15:30N 49°53' W 002°07'1112.0
2018-Feb-17 14:36N 49°54' W 002°24'512.5
2018-Feb-17 14:13N 49°53' W 002°31'312.9
2018-Feb-17 14:00N 49°52' W 002°35'713.0
2018-Feb-17 13:30N 49°50' W 002°44'713.1
2018-Feb-17 13:01N 49°48' W 002°54'815.5
2018-Feb-17 12:31N 49°46' W 003°06'815.7
2018-Feb-17 12:01N 49°45' W 003°18'815.9
2018-Feb-17 11:29N 49°43' W 003°30'1116.0
2018-Feb-17 10:48N 49°42' W 003°47'1916.2
2018-Feb-17 09:39N 49°38' W 004°15'17017.6
2018-Feb-17 00:00N 49°00' W 008°30'31717.6 290 / 211020.210.8 10.0 7.9
2018-Feb-16 06:00N 47°30' W 016°06'10617.7 240 / 181017.910.8 10.0 7.913.0
2018-Feb-16 00:00N 47°00' W 018°36'9519.1 260 / 171018.010.8 10.0 9.0
2018-Feb-15 19:00N 46°30' W 020°48'10815.4 250 / 161017.310.8 11.0 9.015.0
2018-Feb-15 12:00N 46°00' W 023°18'   270 / 161017.610.8 12.0 7.914.5
Track history (hours):
 
Tides and Currents Weather Stations Pressure Air Temp Water Temp Dewpoint Dewpoint Depression Visibility Wind Speed Wind Dir Waves Ship Positions

Maersk Seletar

Owner: MAERSK LINE, LIMITED, Norfolk, VA. More information available from US FCC via Universal Licensing System and Coast Guard Vessel Documentation Center.

Last reported at 2018-Feb-25 01:29 UTC. Time now 2018-Feb-25 01:55 UTC.
Position N 51°17' E 004°15'.

Length 319 m; draft 11.8 m.

Type: Cargo ship. MMSI: 369309000.

Date/timePositionNaut miles runAvg speedWind from/ knotsBaromVisibWave heightAir tempDewpointWater temp
2018-Feb-25 01:29N 51°17' E 004°15'0 0.0
2018-Feb-25 00:59N 51°17' E 004°15'0 0.0
2018-Feb-25 00:26N 51°17' E 004°15'0 0.0
2018-Feb-24 23:59N 51°17' E 004°15'0 0.0
2018-Feb-24 23:29N 51°17' E 004°15'0 0.0
2018-Feb-24 22:59N 51°17' E 004°15'0 0.0
2018-Feb-24 22:29N 51°17' E 004°15'0 0.0
2018-Feb-24 21:56N 51°17' E 004°15'0 0.0
2018-Feb-24 21:26N 51°17' E 004°15'0 0.0
2018-Feb-24 20:59N 51°17' E 004°15'0 0.0
2018-Feb-24 20:26N 51°17' E 004°15'0 0.0
2018-Feb-24 19:56N 51°17' E 004°15'0 0.0
2018-Feb-24 19:29N 51°17' E 004°15'0 0.0
2018-Feb-24 18:56N 51°17' E 004°15'0 0.0
2018-Feb-24 18:26N 51°17' E 004°15'0 0.0
2018-Feb-24 17:59N 51°17' E 004°15'0 0.0
2018-Feb-24 17:29N 51°17' E 004°15'0 0.0
2018-Feb-24 16:59N 51°17' E 004°15'0 0.0
2018-Feb-24 16:29N 51°17' E 004°15'0 0.0
2018-Feb-24 15:56N 51°17' E 004°15'0 0.0
2018-Feb-24 15:29N 51°17' E 004°15'0 0.0
2018-Feb-24 14:59N 51°17' E 004°15'0 0.0
2018-Feb-24 14:29N 51°17' E 004°15'0 0.0
2018-Feb-24 13:56N 51°17' E 004°15'0 0.0
2018-Feb-24 13:23N 51°17' E 004°15'0 0.0
2018-Feb-24 12:59N 51°17' E 004°15'0 0.0
2018-Feb-24 12:29N 51°17' E 004°15'0 0.0
2018-Feb-24 11:59N 51°17' E 004°15'0 0.0
2018-Feb-24 11:29N 51°17' E 004°15'0 0.0
2018-Feb-24 10:59N 51°17' E 004°15'0 0.0
2018-Feb-24 10:26N 51°17' E 004°15'0 0.0
2018-Feb-24 09:59N 51°17' E 004°15'0 0.0
2018-Feb-24 09:29N 51°17' E 004°15'0 0.0
2018-Feb-24 08:59N 51°17' E 004°15'0 0.0
2018-Feb-24 08:29N 51°17' E 004°15'0 0.0
2018-Feb-24 07:59N 51°17' E 004°15'0 0.0
2018-Feb-24 07:29N 51°17' E 004°15'0 0.0
2018-Feb-24 06:59N 51°17' E 004°15'0 0.0
2018-Feb-24 06:29N 51°17' E 004°15'0 0.0
2018-Feb-24 05:56N 51°17' E 004°15'0 0.0
2018-Feb-24 05:29N 51°17' E 004°15'0 0.0
2018-Feb-24 04:56N 51°17' E 004°15'0 0.0
2018-Feb-24 04:29N 51°17' E 004°15'0 0.2
2018-Feb-24 04:00N 51°17' E 004°15'1 2.3
2018-Feb-24 03:30N 51°18' E 004°16'2 3.1
2018-Feb-24 03:00N 51°20' E 004°16'4 7.7
2018-Feb-24 02:31N 51°23' E 004°13'611.5
2018-Feb-24 02:00N 51°22' E 004°04'4 8.7
2018-Feb-24 01:30N 51°25' E 003°58'713.2
2018-Feb-24 01:00N 51°21' E 003°49'713.3
2018-Feb-24 00:30N 51°26' E 003°42'5 9.3
2018-Feb-24 00:00N 51°25' E 003°34'510.1
2018-Feb-23 23:30N 51°25' E 003°26'816.6
2018-Feb-23 23:01N 51°24' E 003°13'917.2
2018-Feb-23 22:31N 51°25' E 002°59'916.8
2018-Feb-23 22:00N 51°24' E 002°45'3 6.5
2018-Feb-23 21:30N 51°24' E 002°40'3 5.6
2018-Feb-23 21:00N 51°23' E 002°36'4 8.0
2018-Feb-23 20:30N 51°22' E 002°30'919.4
2018-Feb-23 20:00N 51°18' E 002°16'917.4
2018-Feb-23 19:31N 51°22' E 002°03'918.7
2018-Feb-23 19:00N 51°29' E 001°53'918.7
2018-Feb-23 18:30N 51°38' E 001°47'918.9
2018-Feb-23 18:00N 51°47' E 001°44'714.6
2018-Feb-23 17:30N 51°54' E 001°42'0 0.5
2018-Feb-23 16:58N 51°54' E 001°42'0 0.0
2018-Feb-23 16:28N 51°54' E 001°42'0 0.0
2018-Feb-23 15:58N 51°54' E 001°42'0 0.1
2018-Feb-23 15:28N 51°54' E 001°42'0 0.0
2018-Feb-23 14:58N 51°54' E 001°42'0 0.0
2018-Feb-23 14:28N 51°54' E 001°42'0 0.0
2018-Feb-23 13:58N 51°54' E 001°42'0 0.0
2018-Feb-23 13:28N 51°54' E 001°42'0 0.1
2018-Feb-23 12:58N 51°54' E 001°42'1 2.1
2018-Feb-23 12:30N 51°53' E 001°41'4 8.8
2018-Feb-23 12:00N 51°52' E 001°34'611.6
2018-Feb-23 11:30N 51°56' E 001°27'510.4
2018-Feb-23 11:00N 51°57' E 001°18'1 1.9
2018-Feb-23 10:28N 51°58' E 001°17'0 0.0
2018-Feb-23 09:58N 51°58' E 001°17'0 0.0
2018-Feb-23 09:28N 51°58' E 001°17'0 0.0
2018-Feb-23 08:58N 51°58' E 001°17'0 0.0
2018-Feb-23 08:28N 51°58' E 001°17'0 0.0
2018-Feb-23 07:58N 51°58' E 001°17'0 0.0
2018-Feb-23 07:28N 51°58' E 001°17'0 0.0
2018-Feb-23 06:58N 51°58' E 001°17'0 0.0
2018-Feb-23 06:28N 51°58' E 001°17'0 0.0
2018-Feb-23 05:58N 51°58' E 001°17'0 0.0
2018-Feb-23 05:28N 51°58' E 001°17'0 0.0
2018-Feb-23 04:58N 51°58' E 001°17'0 0.0
2018-Feb-23 04:28N 51°58' E 001°17'0 0.0
2018-Feb-23 03:58N 51°58' E 001°17'0 0.0
2018-Feb-23 03:28N 51°58' E 001°17'0 0.0
2018-Feb-23 02:58N 51°58' E 001°17'0 0.0
2018-Feb-23 02:28N 51°58' E 001°17'0 0.0
2018-Feb-23 01:58N 51°58' E 001°17'0 0.0
2018-Feb-23 01:28N 51°58' E 001°17'0 0.0
2018-Feb-23 00:52N 51°58' E 001°17'0 0.0
2018-Feb-23 00:28N 51°58' E 001°17'0 0.0
2018-Feb-22 23:58N 51°58' E 001°17'0 0.0
2018-Feb-22 23:25N 51°58' E 001°17'0 0.0
2018-Feb-22 22:58N 51°58' E 001°17'0 0.0
2018-Feb-22 22:28N 51°58' E 001°17'0 0.0
2018-Feb-22 21:58N 51°58' E 001°17'0 0.0
2018-Feb-22 21:28N 51°58' E 001°17'0 0.0
2018-Feb-22 20:58N 51°58' E 001°17'0 0.0
2018-Feb-22 20:28N 51°58' E 001°17'0 0.0
2018-Feb-22 19:58N 51°58' E 001°17'0 0.0
2018-Feb-22 19:28N 51°58' E 001°17'0 0.0
2018-Feb-22 18:58N 51°58' E 001°17'0 0.0
2018-Feb-22 18:28N 51°58' E 001°17'0 0.0
2018-Feb-22 17:58N 51°58' E 001°17'0 0.0
2018-Feb-22 17:25N 51°58' E 001°17'0 0.0
2018-Feb-22 16:58N 51°58' E 001°17'0 0.0
2018-Feb-22 16:28N 51°58' E 001°17'0 0.0
2018-Feb-22 15:58N 51°58' E 001°17'0 0.0
2018-Feb-22 15:28N 51°58' E 001°17'0 0.0
2018-Feb-22 14:58N 51°58' E 001°17'0 0.0
2018-Feb-22 14:28N 51°58' E 001°17'0 0.0
2018-Feb-22 13:58N 51°58' E 001°17'0 0.0
2018-Feb-22 13:28N 51°58' E 001°17'0 0.0
2018-Feb-22 12:58N 51°58' E 001°17'0 0.0
2018-Feb-22 12:28N 51°58' E 001°17'0 0.0
2018-Feb-22 11:58N 51°58' E 001°17'0 0.0
2018-Feb-22 11:28N 51°58' E 001°17'0 0.0
2018-Feb-22 10:58N 51°58' E 001°17'0 0.0
2018-Feb-22 10:28N 51°58' E 001°17'0 0.0
2018-Feb-22 09:58N 51°58' E 001°17'0 0.0
2018-Feb-22 09:28N 51°58' E 001°17'0 0.0
2018-Feb-22 08:58N 51°58' E 001°17'0 0.0
2018-Feb-22 08:28N 51°58' E 001°17'0 0.0
2018-Feb-22 07:58N 51°58' E 001°17'0 0.0
2018-Feb-22 07:28N 51°58' E 001°17'0 0.0
2018-Feb-22 06:58N 51°58' E 001°17'0 0.0
2018-Feb-22 06:28N 51°58' E 001°17'0 0.0
2018-Feb-22 05:58N 51°58' E 001°17'0 0.0
2018-Feb-22 05:28N 51°58' E 001°17'0 0.0
2018-Feb-22 04:58N 51°58' E 001°17'0 0.0
2018-Feb-22 04:28N 51°58' E 001°17'0 0.0
2018-Feb-22 03:58N 51°58' E 001°17'0 0.0
2018-Feb-22 03:28N 51°58' E 001°17'0 0.0
2018-Feb-22 02:58N 51°58' E 001°17'0 0.0
2018-Feb-22 02:28N 51°58' E 001°17'0 0.0
2018-Feb-22 01:58N 51°58' E 001°17'0 0.0
2018-Feb-22 01:30N 51°58' E 001°17'1 1.5
2018-Feb-22 01:00N 51°57' E 001°18'3 6.0
2018-Feb-22 00:30N 51°56' E 001°23'714.2
2018-Feb-22 00:00N 51°54' E 001°34'5 9.1
2018-Feb-21 23:30N 51°52' E 001°40'5 9.7
2018-Feb-21 23:01N 51°56' E 001°44'3 6.4
2018-Feb-21 22:30N 51°59' E 001°45'1 1.6
2018-Feb-21 22:00N 51°59' E 001°46'1 1.4
2018-Feb-21 21:30N 52°00' E 001°47'2 3.5
2018-Feb-21 21:00N 52°01' E 001°50'511.0
2018-Feb-21 20:31N 52°05' E 001°55'510.7
2018-Feb-21 20:00N 52°09' E 002°01'12711.5
2018-Feb-21 09:00N 53°30' E 004°42'11413.4 090 / 81027.1 9.0 9.0
2018-Feb-21 00:28N 53°52' E 007°50'613.4
2018-Feb-21 00:00N 53°51' E 008°01'714.7
2018-Feb-20 23:30N 53°46' E 008°10'713.4
2018-Feb-20 23:00N 53°42' E 008°19'4 7.3
2018-Feb-20 22:30N 53°40' E 008°23'4 8.5
2018-Feb-20 22:00N 53°37' E 008°29'3 6.1
2018-Feb-20 21:30N 53°35' E 008°32'0 0.3
2018-Feb-20 20:58N 53°35' E 008°32'0 0.0
2018-Feb-20 20:28N 53°35' E 008°32'0 0.0
2018-Feb-20 19:58N 53°35' E 008°32'0 0.0
2018-Feb-20 19:28N 53°35' E 008°32'0 0.0
2018-Feb-20 18:58N 53°35' E 008°32'0 0.0
2018-Feb-20 18:28N 53°35' E 008°32'0 0.0
2018-Feb-20 17:58N 53°35' E 008°32'0 0.0
2018-Feb-20 17:28N 53°35' E 008°32'0 0.0
2018-Feb-20 16:58N 53°35' E 008°32'0 0.0
2018-Feb-20 16:28N 53°35' E 008°32'0 0.0
2018-Feb-20 15:58N 53°35' E 008°32'0 0.0
2018-Feb-20 15:28N 53°35' E 008°32'0 0.0
2018-Feb-20 14:58N 53°35' E 008°32'0 0.0
2018-Feb-20 14:28N 53°35' E 008°32'0 0.0
2018-Feb-20 13:58N 53°35' E 008°32'0 0.0
2018-Feb-20 13:28N 53°35' E 008°32'0 0.0
2018-Feb-20 12:58N 53°35' E 008°32'0 0.0
2018-Feb-20 12:28N 53°35' E 008°32'0 0.0
2018-Feb-20 11:58N 53°35' E 008°32'0 0.0
2018-Feb-20 11:28N 53°35' E 008°32'0 0.0
2018-Feb-20 10:58N 53°35' E 008°32'0 0.0
2018-Feb-20 10:28N 53°35' E 008°32'0 0.0
2018-Feb-20 09:58N 53°35' E 008°32'0 0.0
2018-Feb-20 09:28N 53°35' E 008°32'0 0.1
2018-Feb-20 08:58N 53°35' E 008°32'0 0.0
2018-Feb-20 08:28N 53°35' E 008°32'0 0.0
2018-Feb-20 07:58N 53°35' E 008°32'0 0.0
2018-Feb-20 07:28N 53°35' E 008°32'0 0.0
2018-Feb-20 06:58N 53°35' E 008°32'0 0.0
2018-Feb-20 06:28N 53°35' E 008°32'0 0.0
2018-Feb-20 05:58N 53°35' E 008°32'0 0.0
2018-Feb-20 05:28N 53°35' E 008°32'0 0.0
2018-Feb-20 04:58N 53°35' E 008°32'0 0.0
2018-Feb-20 04:28N 53°35' E 008°32'0 0.0
2018-Feb-20 03:58N 53°35' E 008°32'0 0.0
2018-Feb-20 03:28N 53°35' E 008°32'0 0.0
2018-Feb-20 02:58N 53°35' E 008°32'0 0.0
2018-Feb-20 02:28N 53°35' E 008°32'0 0.0
2018-Feb-20 01:58N 53°35' E 008°32'0 0.0
2018-Feb-20 01:25N 53°35' E 008°32'0 0.0
2018-Feb-20 00:58N 53°35' E 008°32'0 0.0
2018-Feb-20 00:28N 53°35' E 008°32'0 0.0
2018-Feb-19 23:58N 53°35' E 008°32'0 0.0
2018-Feb-19 23:28N 53°35' E 008°32'0 0.0
2018-Feb-19 22:58N 53°35' E 008°32'0 0.0
2018-Feb-19 22:28N 53°35' E 008°32'0 0.0
2018-Feb-19 21:58N 53°35' E 008°32'0 0.0
2018-Feb-19 21:25N 53°35' E 008°32'0 0.0
2018-Feb-19 20:58N 53°35' E 008°32'0 0.0
2018-Feb-19 20:28N 53°35' E 008°32'0 0.0
2018-Feb-19 19:58N 53°35' E 008°32'0 0.0
2018-Feb-19 19:28N 53°35' E 008°32'0 0.0
2018-Feb-19 18:58N 53°35' E 008°32'0 0.0
2018-Feb-19 18:28N 53°35' E 008°32'0 0.0
2018-Feb-19 17:58N 53°35' E 008°32'0 0.0
2018-Feb-19 17:28N 53°35' E 008°32'0 0.0
2018-Feb-19 16:58N 53°35' E 008°32'0 0.0
2018-Feb-19 16:28N 53°35' E 008°32'0 0.0
2018-Feb-19 15:58N 53°35' E 008°32'0 0.0
2018-Feb-19 15:28N 53°35' E 008°32'0 0.0
2018-Feb-19 14:58N 53°35' E 008°32'0 0.0
2018-Feb-19 14:28N 53°35' E 008°32'0 0.0
2018-Feb-19 13:58N 53°35' E 008°32'0 0.0
2018-Feb-19 13:28N 53°35' E 008°32'0 0.0
2018-Feb-19 12:58N 53°35' E 008°32'0 0.0
2018-Feb-19 12:28N 53°35' E 008°32'0 0.0
2018-Feb-19 11:58N 53°35' E 008°32'0 0.0
2018-Feb-19 11:28N 53°35' E 008°32'0 0.0
2018-Feb-19 10:58N 53°35' E 008°32'0 0.0
2018-Feb-19 10:28N 53°35' E 008°32'0 0.0
2018-Feb-19 09:58N 53°35' E 008°32'0 0.0
2018-Feb-19 09:28N 53°35' E 008°32'0 0.0
2018-Feb-19 08:58N 53°35' E 008°32'0 0.0
2018-Feb-19 08:25N 53°35' E 008°32'0 0.0
2018-Feb-19 07:58N 53°35' E 008°32'0 0.0
2018-Feb-19 07:28N 53°35' E 008°32'0 0.0
2018-Feb-19 06:58N 53°35' E 008°32'0 0.0
2018-Feb-19 06:28N 53°35' E 008°32'0 0.0
2018-Feb-19 05:58N 53°35' E 008°32'0 0.0
2018-Feb-19 05:28N 53°35' E 008°32'0 0.0
2018-Feb-19 04:58N 53°35' E 008°32'0 0.0
2018-Feb-19 04:28N 53°35' E 008°32'0 0.2
2018-Feb-19 04:00N 53°35' E 008°32'2 4.9
2018-Feb-19 03:31N 53°37' E 008°30'5 9.8
2018-Feb-19 03:00N 53°40' E 008°23'612.7
2018-Feb-19 02:30N 53°44' E 008°15'712.9
2018-Feb-19 02:00N 53°49' E 008°07'713.3
2018-Feb-19 01:30N 53°51' E 007°57'9813.7
2018-Feb-18 18:23N 53°33' E 005°15'615.1
2018-Feb-18 18:01N 53°31' E 005°06'714.9
2018-Feb-18 17:30N 53°28' E 004°55'714.6
2018-Feb-18 17:01N 53°25' E 004°44'2614.0
2018-Feb-18 15:11N 53°02' E 004°23'313.6
2018-Feb-18 15:00N 52°60' E 004°21'713.6
2018-Feb-18 14:30N 52°54' E 004°16'713.3
2018-Feb-18 13:59N 52°48' E 004°10'613.2
2018-Feb-18 13:30N 52°43' E 004°03'913.1
2018-Feb-18 12:49N 52°36' E 003°54'713.0
2018-Feb-18 12:17N 52°31' E 003°46'412.8
2018-Feb-18 11:59N 52°29' E 003°41'612.6
2018-Feb-18 11:30N 52°24' E 003°34'612.5
2018-Feb-18 11:00N 52°20' E 003°27'712.3
2018-Feb-18 10:26N 52°15' E 003°19'512.2
2018-Feb-18 10:00N 52°11' E 003°14'612.2
2018-Feb-18 09:29N 52°06' E 003°07'712.3
2018-Feb-18 08:54N 52°01' E 002°58'2713.2
2018-Feb-18 06:53N 51°41' E 002°29'514.0
2018-Feb-18 06:30N 51°37' E 002°24'714.4
2018-Feb-18 06:00N 51°32' E 002°17'714.0
2018-Feb-18 05:31N 51°26' E 002°12'714.4
2018-Feb-18 05:01N 51°19' E 002°07'714.3
2018-Feb-18 04:30N 51°13' E 002°02'815.1
2018-Feb-18 04:01N 51°08' E 001°52'815.3
2018-Feb-18 03:30N 51°04' E 001°42'815.9
2018-Feb-18 03:00N 50°58' E 001°32'816.2
2018-Feb-18 02:30N 50°51' E 001°26'816.0
2018-Feb-18 02:00N 50°44' E 001°21'814.9
2018-Feb-18 01:28N 50°38' E 001°13'714.8
2018-Feb-18 00:59N 50°33' E 001°05'914.1
2018-Feb-18 00:23N 50°29' E 000°53'614.4
2018-Feb-18 00:00N 50°28' E 000°45'714.8
2018-Feb-17 23:30N 50°25' E 000°34'815.2
2018-Feb-17 23:00N 50°23' E 000°22'815.8
2018-Feb-17 22:30N 50°21' E 000°11'1016.0
2018-Feb-17 21:53N 50°17' W 000°04'816.2
2018-Feb-17 21:22N 50°13' W 000°16'2116.0
2018-Feb-17 20:05N 50°03' W 000°44'115.6
2018-Feb-17 20:00N 50°03' W 000°45'815.4
2018-Feb-17 19:30N 49°59' W 000°56'815.0
2018-Feb-17 19:00N 49°56' W 001°06'714.7
2018-Feb-17 18:30N 49°52' W 001°16'713.9
2018-Feb-17 18:00N 49°49' W 001°26'713.1
2018-Feb-17 17:30N 49°46' W 001°35'510.5
2018-Feb-17 17:00N 49°44' W 001°42'611.3
2018-Feb-17 16:30N 49°47' W 001°49'612.8
2018-Feb-17 16:00N 49°50' W 001°58'612.5
2018-Feb-17 15:30N 49°53' W 002°07'1112.0
2018-Feb-17 14:36N 49°54' W 002°24'512.5
2018-Feb-17 14:13N 49°53' W 002°31'312.9
2018-Feb-17 14:00N 49°52' W 002°35'713.0
2018-Feb-17 13:30N 49°50' W 002°44'713.1
2018-Feb-17 13:01N 49°48' W 002°54'815.5
2018-Feb-17 12:31N 49°46' W 003°06'815.7
2018-Feb-17 12:01N 49°45' W 003°18'815.9
2018-Feb-17 11:29N 49°43' W 003°30'1116.0
2018-Feb-17 10:48N 49°42' W 003°47'1916.2
2018-Feb-17 09:39N 49°38' W 004°15'17017.6
2018-Feb-17 00:00N 49°00' W 008°30'31717.6 290 / 211020.210.8 10.0 7.9
2018-Feb-16 06:00N 47°30' W 016°06'10617.7 240 / 181017.910.8 10.0 7.913.0
2018-Feb-16 00:00N 47°00' W 018°36'9519.1 260 / 171018.010.8 10.0 9.0
2018-Feb-15 19:00N 46°30' W 020°48'10815.4 250 / 161017.310.8 11.0 9.015.0
2018-Feb-15 12:00N 46°00' W 023°18'   270 / 161017.610.8 12.0 7.914.5

Dump ship's entire track history